createdAt,value
2022-12-31T00:16:38.211Z,95.2
2022-12-31T00:36:38.123Z,93.5
2022-12-31T00:56:38.102Z,95.8
2022-12-31T01:36:38.014Z,98.3
2022-12-31T01:56:38.003Z,97.8
2022-12-31T02:16:37.923Z,97.9
2022-12-31T02:56:37.861Z,89.8
2022-12-31T03:16:37.864Z,86.5
2022-12-31T03:56:37.743Z,90.5
2022-12-31T04:36:37.665Z,96.1
2022-12-31T04:56:37.628Z,91.5
2022-12-31T05:16:37.625Z,85.7
2022-12-31T05:36:37.548Z,81.6
2022-12-31T06:16:37.478Z,79.2
2022-12-31T07:16:37.354Z,78.6
2022-12-31T07:36:37.340Z,77.2
2022-12-31T08:36:37.186Z,75.8
2022-12-31T08:56:37.156Z,75.1
2022-12-31T09:36:44.078Z,73.4
2022-12-31T09:56:37.033Z,74.9
2022-12-31T10:56:36.913Z,74.2
2022-12-31T11:16:36.881Z,73.1
2022-12-31T11:36:36.836Z,72.5
2022-12-31T11:56:43.797Z,72.8
2022-12-31T12:16:36.781Z,72.9
2022-12-31T12:36:36.709Z,74.7
2022-12-31T12:56:36.670Z,80.3
2022-12-31T13:16:36.669Z,80.6
2022-12-31T13:36:36.615Z,77.5
2022-12-31T13:56:36.554Z,74.8
2022-12-31T14:16:36.565Z,77.7
2022-12-31T14:36:36.481Z,73.9
2022-12-31T14:56:36.444Z,71.9
2022-12-31T15:16:36.444Z,71.6
2022-12-31T15:36:36.353Z,75.6
2022-12-31T15:56:36.335Z,77.4
2022-12-31T16:16:36.286Z,77.1
2022-12-31T16:36:36.229Z,72.6
2022-12-31T16:56:36.206Z,70.3
2022-12-31T17:16:36.152Z,69
2022-12-31T17:36:36.118Z,68.1
2022-12-31T17:56:36.104Z,67.4
2022-12-31T18:16:36.069Z,65.8
2022-12-31T18:36:36.002Z,64.3
2022-12-31T18:56:35.965Z,64.2
2022-12-31T19:16:35.992Z,62.2
2022-12-31T19:36:40.200Z,59.7
2022-12-31T19:56:35.860Z,58.6
2022-12-31T20:16:35.839Z,57.4
2022-12-31T20:36:35.755Z,55.9
2022-12-31T20:56:35.749Z,54
2022-12-31T21:36:35.669Z,53.7
2022-12-31T22:16:35.592Z,51.6
2022-12-31T22:36:35.543Z,51.1
2022-12-31T22:56:35.556Z,51.9
2022-12-31T23:16:35.477Z,51
2022-12-31T23:36:35.399Z,51.1
2022-12-31T23:56:35.377Z,51.3
